createdAt,value
2022-10-23T00:02:38.821Z,0.80
2022-10-23T00:05:24.724Z,0.98
2022-10-23T00:08:10.469Z,0.84
2022-10-23T00:10:56.483Z,0.86
2022-10-23T00:13:42.380Z,0.88
2022-10-23T00:16:30.236Z,0.93
2022-10-23T00:19:15.965Z,0.84
2022-10-23T00:22:01.800Z,0.90
2022-10-23T00:24:47.527Z,0.90
2022-10-23T00:27:33.333Z,0.94
2022-10-23T00:30:19.196Z,1.06
2022-10-23T00:33:05.040Z,0.94
2022-10-23T00:35:50.971Z,0.98
2022-10-23T00:38:36.811Z,1.01
2022-10-23T00:41:22.628Z,1.02
2022-10-23T00:44:08.536Z,1.00
2022-10-23T00:46:54.304Z,1.19
2022-10-23T00:49:42.715Z,0.83
2022-10-23T00:52:29.142Z,0.71
2022-10-23T00:55:14.988Z,0.77
2022-10-23T00:58:00.759Z,0.70
2022-10-23T01:00:48.723Z,0.77
2022-10-23T01:03:34.446Z,0.68
2022-10-23T01:06:20.409Z,0.67
2022-10-23T01:09:06.175Z,0.68
2022-10-23T01:11:51.972Z,0.61
2022-10-23T01:14:37.859Z,0.83
2022-10-23T01:17:23.641Z,0.84
2022-10-23T01:20:09.651Z,0.80
2022-10-23T01:22:55.500Z,0.74
2022-10-23T01:25:41.350Z,0.69
2022-10-23T01:28:27.416Z,0.83
2022-10-23T01:31:13.164Z,0.75
2022-10-23T01:33:59.126Z,0.68
2022-10-23T01:36:45.012Z,0.76
2022-10-23T01:39:30.833Z,0.58
2022-10-23T01:42:16.572Z,0.60
2022-10-23T01:45:02.325Z,0.73
2022-10-23T01:47:48.250Z,0.70
2022-10-23T01:50:34.095Z,0.60
2022-10-23T01:53:19.929Z,0.64
2022-10-23T01:56:05.724Z,0.74
2022-10-23T01:58:51.519Z,0.79
2022-10-23T02:01:37.355Z,0.68
2022-10-23T02:04:23.280Z,0.87
2022-10-23T02:07:09.051Z,0.76
2022-10-23T02:09:54.921Z,0.93
2022-10-23T02:12:40.915Z,0.71
2022-10-23T02:15:26.669Z,0.84
2022-10-23T02:18:12.524Z,0.69
2022-10-23T02:20:58.250Z,0.72
2022-10-23T02:23:43.989Z,0.81
2022-10-23T02:26:29.944Z,0.73
2022-10-23T02:29:15.622Z,0.76
2022-10-23T02:32:01.550Z,0.76
2022-10-23T02:34:47.292Z,0.68
2022-10-23T02:37:32.953Z,0.80
2022-10-23T02:40:18.897Z,0.82
2022-10-23T02:43:04.633Z,0.70
2022-10-23T02:45:50.565Z,0.86
2022-10-23T02:48:36.386Z,0.78
2022-10-23T02:51:22.193Z,0.73
2022-10-23T02:54:08.129Z,0.82
2022-10-23T02:56:53.968Z,0.90
2022-10-23T02:59:39.937Z,0.91
2022-10-23T03:02:26.014Z,0.72
2022-10-23T03:05:11.953Z,0.79
2022-10-23T03:07:57.830Z,0.73
2022-10-23T03:10:43.625Z,0.77
2022-10-23T03:13:29.477Z,0.92
2022-10-23T03:16:15.376Z,0.81
2022-10-23T03:19:01.204Z,0.80
2022-10-23T03:25:09.927Z,0.77
2022-10-23T03:27:55.926Z,0.75
2022-10-23T03:30:41.625Z,0.85
2022-10-23T03:33:27.343Z,0.80
2022-10-23T03:36:13.081Z,0.90
2022-10-23T03:38:58.942Z,1.07
2022-10-23T03:41:44.833Z,0.96
2022-10-23T03:44:30.651Z,0.99
2022-10-23T03:47:16.408Z,1.15
2022-10-23T03:50:02.302Z,1.09
2022-10-23T03:52:48.425Z,0.96
2022-10-23T03:55:34.318Z,1.05
2022-10-23T03:58:20.266Z,1.22
2022-10-23T04:01:06.188Z,0.99
2022-10-23T04:03:52.091Z,0.86
2022-10-23T04:06:37.980Z,1.15
2022-10-23T04:09:23.890Z,1.22
2022-10-23T04:12:09.792Z,1.33
2022-10-23T04:15:15.504Z,1.45
2022-10-23T04:18:01.390Z,1.49
2022-10-23T04:20:47.156Z,1.15
2022-10-23T04:23:32.924Z,1.21
2022-10-23T04:26:18.675Z,1.18
2022-10-23T04:29:04.449Z,1.11
2022-10-23T04:31:50.304Z,1.24
2022-10-23T04:34:36.239Z,1.29
2022-10-23T04:37:22.109Z,1.23
2022-10-23T04:40:07.984Z,1.23
2022-10-23T04:42:53.754Z,1.23
2022-10-23T04:45:39.601Z,1.18
2022-10-23T04:48:28.347Z,1.33
2022-10-23T04:51:15.704Z,1.19
2022-10-23T04:54:03.565Z,1.09
2022-10-23T04:56:49.584Z,1.09
2022-10-23T04:59:35.357Z,1.20
2022-10-23T05:02:21.139Z,1.19
2022-10-23T05:05:06.961Z,1.26
2022-10-23T05:07:52.911Z,1.26
2022-10-23T05:10:38.765Z,1.41
2022-10-23T05:13:24.643Z,1.71
2022-10-23T05:16:10.469Z,2.27
2022-10-23T05:18:56.224Z,1.51
2022-10-23T05:21:41.994Z,1.48
2022-10-23T05:24:27.801Z,1.66
2022-10-23T05:27:13.689Z,1.81
2022-10-23T05:29:59.441Z,1.65
2022-10-23T05:32:45.374Z,1.37
2022-10-23T05:35:31.711Z,1.51
2022-10-23T05:38:17.574Z,1.64
2022-10-23T05:41:03.507Z,1.41
2022-10-23T05:43:49.679Z,1.21
2022-10-23T05:46:35.509Z,1.07
2022-10-23T05:49:21.361Z,0.98
2022-10-23T05:52:07.021Z,0.86
2022-10-23T05:54:52.861Z,0.96
2022-10-23T05:57:38.817Z,0.73
2022-10-23T06:00:24.689Z,0.94
2022-10-23T06:03:10.539Z,0.96
2022-10-23T06:05:56.435Z,0.80
2022-10-23T06:08:42.339Z,0.81
2022-10-23T06:11:28.335Z,0.80
2022-10-23T06:14:14.068Z,0.73
2022-10-23T06:16:59.904Z,0.91
2022-10-23T06:19:45.610Z,0.79
2022-10-23T06:22:31.612Z,0.77
2022-10-23T06:25:17.519Z,0.90
2022-10-23T06:28:03.422Z,0.76
2022-10-23T06:30:49.222Z,0.84
2022-10-23T06:33:35.241Z,0.89
2022-10-23T06:36:21.051Z,0.82
2022-10-23T06:39:08.827Z,0.93
2022-10-23T06:41:54.661Z,1.08
2022-10-23T06:44:40.524Z,0.92
2022-10-23T06:47:26.463Z,1.05
2022-10-23T06:50:15.332Z,1.24
2022-10-23T06:53:01.761Z,1.09
2022-10-23T06:55:50.055Z,0.96
2022-10-23T06:58:40.724Z,0.98
2022-10-23T07:01:26.730Z,0.83
2022-10-23T07:04:12.829Z,1.02
2022-10-23T07:06:58.777Z,1.06
2022-10-23T07:09:44.485Z,1.17
2022-10-23T07:12:30.566Z,1.09
2022-10-23T07:15:18.395Z,1.15
2022-10-23T07:18:06.166Z,1.16
2022-10-23T07:20:51.928Z,1.17
2022-10-23T07:23:37.839Z,1.07
2022-10-23T07:26:23.533Z,1.06
2022-10-23T07:29:09.409Z,0.92
2022-10-23T07:31:55.259Z,1.02
2022-10-23T07:34:41.123Z,0.94
2022-10-23T07:37:26.889Z,0.74
2022-10-23T07:40:12.750Z,0.79
2022-10-23T07:42:58.706Z,1.95
2022-10-23T07:45:44.580Z,2.54
2022-10-23T07:48:30.445Z,1.58
2022-10-23T07:51:16.310Z,1.76
2022-10-23T07:54:02.151Z,1.61
2022-10-23T07:56:47.969Z,1.52
2022-10-23T07:59:37.171Z,1.74
2022-10-23T08:02:24.358Z,2.02
2022-10-23T08:05:10.265Z,1.69
2022-10-23T08:07:56.028Z,2.00
2022-10-23T08:10:41.820Z,2.79
2022-10-23T08:13:27.715Z,3.58
2022-10-23T08:16:13.666Z,3.51
2022-10-23T08:18:59.372Z,3.36
2022-10-23T08:21:45.171Z,3.16
2022-10-23T08:24:30.860Z,3.19
2022-10-23T08:27:18.625Z,3.29
2022-10-23T08:30:04.641Z,2.83
2022-10-23T08:32:50.429Z,2.93
2022-10-23T08:35:36.345Z,2.72
2022-10-23T08:38:22.210Z,2.87
2022-10-23T08:41:07.994Z,2.77
2022-10-23T08:43:53.781Z,2.71
2022-10-23T08:46:39.678Z,2.76
2022-10-23T08:49:25.540Z,2.68
2022-10-23T08:52:13.975Z,2.60
2022-10-23T08:55:00.460Z,2.27
2022-10-23T08:57:46.419Z,2.03
2022-10-23T09:00:32.357Z,1.79
2022-10-23T09:03:18.237Z,2.22
2022-10-23T09:06:04.034Z,2.42
2022-10-23T09:08:49.913Z,2.65
2022-10-23T09:11:35.668Z,2.92
2022-10-23T09:14:21.568Z,2.69
2022-10-23T09:17:07.337Z,2.39
2022-10-23T09:19:53.178Z,2.49
2022-10-23T09:22:39.254Z,2.52
2022-10-23T09:25:25.096Z,2.17
2022-10-23T09:28:10.999Z,1.76
2022-10-23T09:30:56.824Z,1.72
2022-10-23T09:33:42.591Z,1.73
2022-10-23T09:36:28.495Z,1.77
2022-10-23T09:39:14.367Z,1.76
2022-10-23T09:42:00.291Z,1.65
2022-10-23T09:44:46.221Z,1.45
2022-10-23T09:47:32.041Z,1.33
2022-10-23T09:50:18.142Z,1.76
2022-10-23T09:53:04.052Z,1.59
2022-10-23T09:55:49.992Z,1.63
2022-10-23T09:58:35.805Z,1.51
2022-10-23T10:01:21.778Z,1.90
2022-10-23T10:04:09.727Z,1.93
2022-10-23T10:06:55.564Z,2.55
2022-10-23T10:09:41.451Z,2.44
2022-10-23T10:12:27.445Z,2.48
2022-10-23T10:15:13.349Z,2.38
2022-10-23T10:17:59.188Z,2.18
2022-10-23T10:20:44.990Z,2.32
2022-10-23T10:23:30.877Z,2.13
2022-10-23T10:26:16.811Z,2.24
2022-10-23T10:29:02.802Z,2.08
2022-10-23T10:31:53.013Z,2.15
2022-10-23T10:34:39.026Z,2.02
2022-10-23T10:37:24.966Z,2.05
2022-10-23T10:40:10.980Z,2.04
2022-10-23T10:42:58.788Z,2.02
2022-10-23T10:45:44.707Z,2.10
2022-10-23T10:48:30.528Z,2.16
2022-10-23T10:51:16.380Z,1.93
2022-10-23T10:54:02.298Z,1.84
2022-10-23T10:56:48.100Z,2.04
2022-10-23T10:59:33.963Z,2.18
2022-10-23T11:02:20.034Z,2.26
2022-10-23T11:05:05.782Z,2.11
2022-10-23T11:07:51.869Z,2.87
2022-10-23T11:10:39.859Z,3.22
2022-10-23T11:13:25.709Z,2.85
2022-10-23T11:16:11.490Z,3.15
2022-10-23T11:18:57.353Z,2.77
2022-10-23T11:21:43.126Z,2.68
2022-10-23T11:24:28.929Z,2.50
2022-10-23T11:27:14.843Z,2.42
2022-10-23T11:30:00.663Z,2.39
2022-10-23T11:32:46.383Z,2.54
2022-10-23T11:35:32.218Z,2.32
2022-10-23T11:38:18.106Z,2.45
2022-10-23T11:41:03.979Z,2.35
2022-10-23T11:43:49.877Z,2.38
2022-10-23T11:46:35.771Z,2.09
2022-10-23T11:49:21.653Z,2.07
2022-10-23T11:52:07.530Z,2.09
2022-10-23T11:54:53.314Z,2.44
2022-10-23T11:57:39.354Z,2.17
2022-10-23T12:00:25.398Z,2.23
2022-10-23T12:03:11.109Z,2.25
2022-10-23T12:05:57.041Z,2.30
2022-10-23T12:08:42.936Z,2.32
2022-10-23T12:11:28.877Z,2.21
2022-10-23T12:14:14.905Z,2.20
2022-10-23T12:17:00.633Z,2.12
2022-10-23T12:19:46.474Z,2.41
2022-10-23T12:22:32.426Z,2.67
2022-10-23T12:25:18.268Z,2.62
2022-10-23T12:28:04.217Z,2.73
2022-10-23T12:30:50.050Z,2.72
2022-10-23T12:33:35.959Z,2.91
2022-10-23T12:36:21.869Z,2.99
2022-10-23T12:39:07.822Z,3.02
2022-10-23T12:41:53.670Z,2.94
2022-10-23T12:44:39.698Z,2.62
2022-10-23T12:47:25.899Z,2.88
2022-10-23T12:50:11.938Z,2.76
2022-10-23T12:52:57.859Z,3.13
2022-10-23T12:55:45.744Z,2.91
2022-10-23T12:58:31.684Z,3.29
2022-10-23T13:01:17.595Z,3.20
2022-10-23T13:04:03.739Z,3.21
2022-10-23T13:06:49.679Z,3.12
2022-10-23T13:09:35.634Z,3.10
2022-10-23T13:12:21.612Z,3.47
2022-10-23T13:15:07.382Z,3.71
2022-10-23T13:17:53.242Z,3.18
2022-10-23T13:20:39.268Z,3.45
2022-10-23T13:23:25.144Z,3.51
2022-10-23T13:26:10.999Z,3.45
2022-10-23T13:28:56.935Z,3.47
2022-10-23T13:31:42.625Z,3.46
2022-10-23T13:34:28.360Z,3.59
2022-10-23T13:37:14.297Z,3.71
2022-10-23T13:40:00.136Z,3.57
2022-10-23T13:42:46.577Z,3.46
2022-10-23T13:45:32.911Z,3.38
2022-10-23T13:48:18.937Z,3.50
2022-10-23T13:51:04.809Z,3.30
2022-10-23T13:53:50.738Z,3.29
2022-10-23T13:56:38.597Z,3.73
2022-10-23T13:59:24.561Z,3.60
2022-10-23T14:02:10.435Z,3.50
2022-10-23T14:04:56.300Z,3.52
2022-10-23T14:07:42.350Z,3.66
2022-10-23T14:10:28.462Z,3.82
2022-10-23T14:13:14.407Z,3.93
2022-10-23T14:16:00.212Z,3.99
2022-10-23T14:18:46.083Z,3.79
2022-10-23T14:21:32.066Z,3.82
2022-10-23T14:24:17.997Z,3.45
2022-10-23T14:27:03.941Z,3.63
2022-10-23T14:29:49.948Z,4.13
2022-10-23T14:32:35.767Z,3.81
2022-10-23T14:35:21.610Z,3.99
2022-10-23T14:38:07.493Z,4.19
2022-10-23T14:40:53.467Z,3.72
2022-10-23T14:43:39.443Z,4.01
2022-10-23T14:46:25.157Z,4.15
2022-10-23T14:49:11.242Z,4.15
2022-10-23T14:51:57.038Z,3.97
2022-10-23T14:54:43.061Z,4.16
2022-10-23T14:57:29.028Z,4.06
2022-10-23T15:00:14.947Z,4.06
2022-10-23T15:03:00.807Z,4.02
2022-10-23T15:05:46.866Z,4.25
2022-10-23T15:08:32.690Z,4.18
2022-10-23T15:11:18.578Z,4.11
2022-10-23T15:14:04.357Z,4.00
2022-10-23T15:16:50.425Z,3.84
2022-10-23T15:19:36.392Z,4.10
2022-10-23T15:22:22.277Z,4.27
2022-10-23T15:25:08.231Z,3.52
2022-10-23T15:27:54.061Z,4.24
2022-10-23T15:30:39.966Z,4.21
2022-10-23T15:33:25.923Z,4.17
2022-10-23T15:36:11.798Z,3.87
2022-10-23T15:38:57.781Z,4.22
2022-10-23T15:41:43.594Z,4.11
2022-10-23T15:44:29.575Z,4.03
2022-10-23T15:47:15.490Z,3.79
2022-10-23T15:50:01.347Z,3.82
2022-10-23T15:52:47.383Z,4.00
2022-10-23T15:55:33.286Z,4.14
2022-10-23T15:58:19.004Z,4.23
2022-10-23T16:01:04.912Z,4.18
2022-10-23T16:03:50.810Z,4.12
2022-10-23T16:06:36.632Z,4.06
2022-10-23T16:09:22.548Z,4.09
2022-10-23T16:12:08.246Z,4.20
2022-10-23T16:14:54.184Z,4.57
2022-10-23T16:17:40.274Z,4.26
2022-10-23T16:20:26.209Z,4.19
2022-10-23T16:23:12.006Z,4.47
2022-10-23T16:25:57.916Z,4.23
2022-10-23T16:28:43.912Z,4.33
2022-10-23T16:31:29.894Z,4.31
2022-10-23T16:34:15.703Z,4.41
2022-10-23T16:37:01.489Z,4.46
2022-10-23T16:39:47.431Z,4.27
2022-10-23T16:42:33.226Z,4.21
2022-10-23T16:45:19.163Z,4.34
2022-10-23T16:48:04.945Z,4.64
2022-10-23T16:50:50.922Z,4.51
2022-10-23T16:53:37.001Z,4.95
2022-10-23T16:56:22.844Z,4.77
2022-10-23T16:59:08.682Z,4.95
2022-10-23T17:01:54.603Z,4.89
2022-10-23T17:04:42.940Z,5.46
2022-10-23T17:07:28.887Z,5.15
2022-10-23T17:10:14.703Z,5.06
2022-10-23T17:13:00.648Z,5.18
2022-10-23T17:15:46.664Z,4.99
2022-10-23T17:18:32.475Z,4.92
2022-10-23T17:21:18.331Z,4.89
2022-10-23T17:24:04.245Z,5.57
2022-10-23T17:26:50.117Z,4.98
2022-10-23T17:29:36.092Z,4.89
2022-10-23T17:35:12.636Z,4.90
2022-10-23T17:38:00.491Z,5.48
2022-10-23T17:43:37.081Z,5.37
2022-10-23T17:46:22.773Z,5.54
2022-10-23T17:49:08.572Z,6.05
2022-10-23T17:51:54.382Z,5.56
2022-10-23T17:54:40.357Z,5.78
2022-10-23T17:57:26.224Z,5.83
2022-10-23T18:00:12.005Z,5.85
2022-10-23T18:02:57.817Z,5.98
2022-10-23T18:05:43.832Z,6.14
2022-10-23T18:08:29.647Z,6.46
2022-10-23T18:11:15.598Z,6.34
2022-10-23T18:14:01.505Z,6.13
2022-10-23T18:16:47.399Z,5.95
2022-10-23T18:19:33.497Z,5.35
2022-10-23T18:25:10.225Z,4.74
2022-10-23T18:28:00.313Z,4.61
2022-10-23T18:30:48.708Z,4.46
2022-10-23T18:33:35.585Z,4.26
2022-10-23T18:36:21.257Z,4.75
2022-10-23T18:39:07.214Z,4.43
2022-10-23T18:41:53.087Z,4.35
2022-10-23T18:44:40.992Z,4.55
2022-10-23T18:47:26.905Z,5.01
2022-10-23T18:50:12.679Z,4.76
2022-10-23T18:52:58.633Z,5.41
2022-10-23T18:55:44.557Z,5.50
2022-10-23T18:58:30.380Z,5.28
2022-10-23T19:01:18.359Z,5.25
2022-10-23T19:04:04.534Z,5.51
2022-10-23T19:06:50.352Z,5.43
2022-10-23T19:09:36.287Z,5.70
2022-10-23T19:12:22.122Z,5.06
2022-10-23T19:15:08.049Z,5.35
2022-10-23T19:17:53.940Z,4.38
2022-10-23T19:20:39.681Z,4.22
2022-10-23T19:23:25.521Z,4.85
2022-10-23T19:26:13.486Z,4.35
2022-10-23T19:28:59.162Z,4.24
2022-10-23T19:31:45.026Z,4.54
2022-10-23T19:34:30.777Z,4.97
2022-10-23T19:37:16.567Z,4.87
2022-10-23T19:40:02.611Z,4.62
2022-10-23T19:42:50.495Z,4.94
2022-10-23T19:45:36.504Z,5.25
2022-10-23T19:48:24.469Z,5.00
2022-10-23T19:51:10.329Z,5.38
2022-10-23T19:53:56.134Z,5.28
2022-10-23T19:56:41.958Z,5.76
2022-10-23T19:59:27.783Z,5.72
2022-10-23T20:02:14.025Z,5.53
2022-10-23T20:05:00.320Z,5.61
2022-10-23T20:07:46.426Z,5.15
2022-10-23T20:10:32.659Z,5.35
2022-10-23T20:13:20.190Z,4.87
2022-10-23T20:16:06.441Z,4.43
2022-10-23T20:18:52.315Z,4.68
2022-10-23T20:21:38.257Z,4.17
2022-10-23T20:24:24.113Z,3.99
2022-10-23T20:27:09.969Z,4.08
2022-10-23T20:29:55.801Z,3.90
2022-10-23T20:32:41.970Z,3.69
2022-10-23T20:35:28.135Z,3.89
2022-10-23T20:38:13.916Z,4.11
2022-10-23T20:40:59.765Z,4.34
2022-10-23T20:43:45.598Z,4.84
2022-10-23T20:46:31.471Z,4.52
2022-10-23T20:49:17.347Z,5.00
2022-10-23T20:52:03.262Z,4.54
2022-10-23T20:54:49.191Z,4.55
2022-10-23T20:57:35.026Z,4.52
2022-10-23T21:00:20.853Z,4.79
2022-10-23T21:03:06.701Z,4.78
2022-10-23T21:05:52.540Z,4.49
2022-10-23T21:08:38.395Z,4.40
2022-10-23T21:11:26.215Z,4.42
2022-10-23T21:14:12.079Z,4.44
2022-10-23T21:16:57.943Z,4.29
2022-10-23T21:19:43.790Z,4.44
2022-10-23T21:22:29.626Z,4.19
2022-10-23T21:25:15.547Z,4.21
2022-10-23T21:28:01.424Z,3.99
2022-10-23T21:30:47.273Z,4.08
2022-10-23T21:33:33.299Z,3.97
2022-10-23T21:36:19.127Z,4.05
2022-10-23T21:39:05.096Z,4.25
2022-10-23T21:41:50.836Z,4.19
2022-10-23T21:44:36.747Z,4.08
2022-10-23T21:47:24.683Z,3.80
2022-10-23T21:50:10.462Z,4.32
2022-10-23T21:52:56.332Z,4.16
2022-10-23T21:55:42.285Z,4.20
2022-10-23T21:58:28.081Z,3.71
2022-10-23T22:01:13.988Z,3.86
2022-10-23T22:03:59.920Z,3.54
2022-10-23T22:06:45.764Z,4.05
2022-10-23T22:09:31.759Z,3.86
2022-10-23T22:12:17.578Z,4.17
2022-10-23T22:15:03.504Z,4.39
2022-10-23T22:17:49.470Z,4.54
2022-10-23T22:20:35.226Z,4.55
2022-10-23T22:23:21.007Z,4.60
2022-10-23T22:26:06.912Z,4.47
2022-10-23T22:28:52.733Z,4.46
2022-10-23T22:31:38.631Z,4.66
2022-10-23T22:34:47.945Z,4.33
2022-10-23T22:37:30.423Z,4.44
2022-10-23T22:40:16.286Z,4.63
2022-10-23T22:43:02.198Z,4.54
2022-10-23T22:45:47.979Z,4.32
2022-10-23T22:48:33.840Z,3.72
2022-10-23T22:51:19.624Z,3.68
2022-10-23T22:54:05.589Z,3.39
2022-10-23T22:56:52.496Z,3.41
2022-10-23T22:59:38.314Z,2.72
2022-10-23T23:02:24.730Z,2.83
2022-10-23T23:05:10.700Z,2.26
2022-10-23T23:07:56.423Z,2.10
2022-10-23T23:10:42.272Z,2.23
2022-10-23T23:13:28.090Z,2.10
2022-10-23T23:16:13.868Z,1.89
2022-10-23T23:18:59.807Z,1.75
2022-10-23T23:21:45.530Z,1.79
2022-10-23T23:24:31.286Z,1.55
2022-10-23T23:27:17.081Z,1.63
2022-10-23T23:30:03.018Z,1.69
2022-10-23T23:32:48.947Z,1.78
2022-10-23T23:35:34.742Z,1.93
2022-10-23T23:38:20.677Z,1.96
2022-10-23T23:41:06.643Z,1.88
2022-10-23T23:43:52.436Z,2.06
2022-10-23T23:46:38.392Z,1.92
2022-10-23T23:49:24.209Z,1.94
2022-10-23T23:52:10.047Z,1.77
2022-10-23T23:54:55.961Z,1.97
2022-10-23T23:57:42.005Z,2.16
